sensor_id;sensor_type;location;lat;lon;timestamp;temperature;humidity
44886;DHT22;36669;51.428;21.162;2023-06-19T00:00:08;12.30;99.90
44886;DHT22;36669;51.428;21.162;2023-06-19T00:02:42;12.30;99.90
44886;DHT22;36669;51.428;21.162;2023-06-19T00:05:08;12.20;99.90
44886;DHT22;36669;51.428;21.162;2023-06-19T00:07:36;12.20;99.90
44886;DHT22;36669;51.428;21.162;2023-06-19T00:10:02;12.20;99.90
44886;DHT22;36669;51.428;21.162;2023-06-19T00:12:28;12.20;99.90
44886;DHT22;36669;51.428;21.162;2023-06-19T00:14:53;12.10;99.90
44886;DHT22;36669;51.428;21.162;2023-06-19T00:17:19;12.10;99.90
44886;DHT22;36669;51.428;21.162;2023-06-19T00:19:45;12.10;99.90
44886;DHT22;36669;51.428;21.162;2023-06-19T00:22:10;12.10;99.90
44886;DHT22;36669;51.428;21.162;2023-06-19T00:24:36;12.10;99.90
44886;DHT22;36669;51.428;21.162;2023-06-19T00:27:01;12.10;99.90
44886;DHT22;36669;51.428;21.162;2023-06-19T00:29:29;12.10;99.90
44886;DHT22;36669;51.428;21.162;2023-06-19T00:31:55;12.00;99.90
44886;DHT22;36669;51.428;21.162;2023-06-19T00:34:20;12.10;99.90
44886;DHT22;36669;51.428;21.162;2023-06-19T00:36:47;12.10;99.90
44886;DHT22;36669;51.428;21.162;2023-06-19T00:39:13;12.00;99.90
44886;DHT22;36669;51.428;21.162;2023-06-19T00:41:39;12.00;99.90
44886;DHT22;36669;51.428;21.162;2023-06-19T00:44:06;12.00;99.90
44886;DHT22;36669;51.428;21.162;2023-06-19T00:46:32;11.90;99.90
44886;DHT22;36669;51.428;21.162;2023-06-19T00:48:57;11.90;99.90
44886;DHT22;36669;51.428;21.162;2023-06-19T00:51:23;11.90;99.90
44886;DHT22;36669;51.428;21.162;2023-06-19T00:53:49;11.90;99.90
44886;DHT22;36669;51.428;21.162;2023-06-19T00:56:15;11.80;99.90
44886;DHT22;36669;51.428;21.162;2023-06-19T00:58:43;11.80;99.90
44886;DHT22;36669;51.428;21.162;2023-06-19T01:01:10;11.80;99.90
44886;DHT22;36669;51.428;21.162;2023-06-19T01:03:36;11.70;99.90
44886;DHT22;36669;51.428;21.162;2023-06-19T01:06:02;11.80;99.90
44886;DHT22;36669;51.428;21.162;2023-06-19T01:08:51;11.80;99.90
44886;DHT22;36669;51.428;21.162;2023-06-19T01:11:22;11.80;99.90
44886;DHT22;36669;51.428;21.162;2023-06-19T01:13:53;11.90;99.90
44886;DHT22;36669;51.428;21.162;2023-06-19T01:16:21;11.90;99.90
44886;DHT22;36669;51.428;21.162;2023-06-19T01:18:48;11.90;99.90
44886;DHT22;36669;51.428;21.162;2023-06-19T01:21:16;11.90;99.90
44886;DHT22;36669;51.428;21.162;2023-06-19T01:23:42;11.90;99.90
44886;DHT22;36669;51.428;21.162;2023-06-19T01:26:09;11.90;99.90
44886;DHT22;36669;51.428;21.162;2023-06-19T01:28:35;11.80;99.90
44886;DHT22;36669;51.428;21.162;2023-06-19T01:31:04;11.80;99.90
44886;DHT22;36669;51.428;21.162;2023-06-19T01:33:31;11.70;99.90
44886;DHT22;36669;51.428;21.162;2023-06-19T01:35:58;11.70;99.90
44886;DHT22;36669;51.428;21.162;2023-06-19T01:38:25;11.70;99.90
44886;DHT22;36669;51.428;21.162;2023-06-19T01:40:56;11.60;99.90
44886;DHT22;36669;51.428;21.162;2023-06-19T01:43:23;11.60;99.90
44886;DHT22;36669;51.428;21.162;2023-06-19T01:45:50;11.60;99.90
44886;DHT22;36669;51.428;21.162;2023-06-19T01:48:16;11.50;99.90
44886;DHT22;36669;51.428;21.162;2023-06-19T01:50:46;11.50;99.90
44886;DHT22;36669;51.428;21.162;2023-06-19T01:53:12;11.50;99.90
44886;DHT22;36669;51.428;21.162;2023-06-19T01:55:38;11.40;99.90
44886;DHT22;36669;51.428;21.162;2023-06-19T01:58:04;11.50;99.90
44886;DHT22;36669;51.428;21.162;2023-06-19T02:00:29;11.50;99.90
44886;DHT22;36669;51.428;21.162;2023-06-19T02:02:57;11.60;99.90
44886;DHT22;36669;51.428;21.162;2023-06-19T02:05:23;11.60;99.90
44886;DHT22;36669;51.428;21.162;2023-06-19T02:07:49;11.70;99.90
44886;DHT22;36669;51.428;21.162;2023-06-19T02:10:14;11.70;99.90
44886;DHT22;36669;51.428;21.162;2023-06-19T02:12:40;11.70;99.90
44886;DHT22;36669;51.428;21.162;2023-06-19T02:15:06;11.70;99.90
44886;DHT22;36669;51.428;21.162;2023-06-19T02:17:32;11.70;99.90
44886;DHT22;36669;51.428;21.162;2023-06-19T02:19:58;11.80;99.90
44886;DHT22;36669;51.428;21.162;2023-06-19T02:22:24;11.80;99.90
44886;DHT22;36669;51.428;21.162;2023-06-19T02:24:49;11.80;99.90
44886;DHT22;36669;51.428;21.162;2023-06-19T02:27:15;11.80;99.90
44886;DHT22;36669;51.428;21.162;2023-06-19T02:29:41;11.70;99.90
44886;DHT22;36669;51.428;21.162;2023-06-19T02:32:07;11.70;99.90
44886;DHT22;36669;51.428;21.162;2023-06-19T02:34:33;11.60;99.90
44886;DHT22;36669;51.428;21.162;2023-06-19T02:36:59;11.50;99.90
44886;DHT22;36669;51.428;21.162;2023-06-19T02:39:24;11.50;99.90
44886;DHT22;36669;51.428;21.162;2023-06-19T02:41:50;11.60;99.90
44886;DHT22;36669;51.428;21.162;2023-06-19T02:44:16;11.50;99.90
44886;DHT22;36669;51.428;21.162;2023-06-19T02:46:41;11.40;99.90
44886;DHT22;36669;51.428;21.162;2023-06-19T02:49:07;11.40;99.90
44886;DHT22;36669;51.428;21.162;2023-06-19T02:51:33;11.30;99.90
44886;DHT22;36669;51.428;21.162;2023-06-19T02:53:58;11.30;99.90
44886;DHT22;36669;51.428;21.162;2023-06-19T02:56:25;11.30;99.90
44886;DHT22;36669;51.428;21.162;2023-06-19T02:58:51;11.30;99.90
44886;DHT22;36669;51.428;21.162;2023-06-19T03:01:17;11.30;99.90
44886;DHT22;36669;51.428;21.162;2023-06-19T03:03:43;11.30;99.90
44886;DHT22;36669;51.428;21.162;2023-06-19T03:06:09;11.40;99.90
44886;DHT22;36669;51.428;21.162;2023-06-19T03:08:35;11.40;99.90
44886;DHT22;36669;51.428;21.162;2023-06-19T03:11:01;11.40;99.90
44886;DHT22;36669;51.428;21.162;2023-06-19T03:13:31;11.50;99.90
44886;DHT22;36669;51.428;21.162;2023-06-19T03:15:57;11.60;99.90
44886;DHT22;36669;51.428;21.162;2023-06-19T03:18:23;11.60;99.90
44886;DHT22;36669;51.428;21.162;2023-06-19T03:20:48;11.90;99.90
44886;DHT22;36669;51.428;21.162;2023-06-19T03:23:14;11.90;99.90
44886;DHT22;36669;51.428;21.162;2023-06-19T03:25:39;11.90;99.90
44886;DHT22;36669;51.428;21.162;2023-06-19T03:28:08;12.00;99.90
44886;DHT22;36669;51.428;21.162;2023-06-19T03:30:33;12.00;99.90
44886;DHT22;36669;51.428;21.162;2023-06-19T03:32:59;12.20;99.90
44886;DHT22;36669;51.428;21.162;2023-06-19T03:35:25;12.20;99.90
44886;DHT22;36669;51.428;21.162;2023-06-19T03:37:50;12.20;99.90
44886;DHT22;36669;51.428;21.162;2023-06-19T03:40:16;12.20;99.90
44886;DHT22;36669;51.428;21.162;2023-06-19T03:42:42;12.20;99.90
44886;DHT22;36669;51.428;21.162;2023-06-19T03:45:08;12.20;99.90
44886;DHT22;36669;51.428;21.162;2023-06-19T03:47:33;12.30;99.90
44886;DHT22;36669;51.428;21.162;2023-06-19T03:49:59;12.30;99.90
44886;DHT22;36669;51.428;21.162;2023-06-19T03:52:25;12.50;99.90
44886;DHT22;36669;51.428;21.162;2023-06-19T03:54:50;12.60;99.90
44886;DHT22;36669;51.428;21.162;2023-06-19T03:57:16;12.70;99.90
44886;DHT22;36669;51.428;21.162;2023-06-19T03:59:41;12.70;99.90
44886;DHT22;36669;51.428;21.162;2023-06-19T04:02:07;12.80;99.90
44886;DHT22;36669;51.428;21.162;2023-06-19T04:04:33;12.90;99.90
44886;DHT22;36669;51.428;21.162;2023-06-19T04:06:58;12.90;99.90
44886;DHT22;36669;51.428;21.162;2023-06-19T04:09:26;13.00;99.90
44886;DHT22;36669;51.428;21.162;2023-06-19T04:11:52;13.10;99.90
44886;DHT22;36669;51.428;21.162;2023-06-19T04:14:18;13.10;99.90
44886;DHT22;36669;51.428;21.162;2023-06-19T04:16:43;13.20;99.90
44886;DHT22;36669;51.428;21.162;2023-06-19T04:19:09;13.30;99.90
44886;DHT22;36669;51.428;21.162;2023-06-19T04:21:34;13.40;99.90
44886;DHT22;36669;51.428;21.162;2023-06-19T04:24:00;13.50;99.90
44886;DHT22;36669;51.428;21.162;2023-06-19T04:26:26;13.50;99.90
44886;DHT22;36669;51.428;21.162;2023-06-19T04:28:51;13.60;99.90
44886;DHT22;36669;51.428;21.162;2023-06-19T04:31:17;13.70;99.90
44886;DHT22;36669;51.428;21.162;2023-06-19T04:33:45;13.80;99.90
44886;DHT22;36669;51.428;21.162;2023-06-19T04:36:11;13.90;99.90
44886;DHT22;36669;51.428;21.162;2023-06-19T04:38:36;14.00;99.90
44886;DHT22;36669;51.428;21.162;2023-06-19T04:41:02;14.10;99.90
44886;DHT22;36669;51.428;21.162;2023-06-19T04:43:28;14.20;99.90
44886;DHT22;36669;51.428;21.162;2023-06-19T04:45:53;14.30;99.90
44886;DHT22;36669;51.428;21.162;2023-06-19T04:48:19;14.40;99.90
44886;DHT22;36669;51.428;21.162;2023-06-19T04:50:44;14.50;99.90
44886;DHT22;36669;51.428;21.162;2023-06-19T04:53:10;14.60;99.90
44886;DHT22;36669;51.428;21.162;2023-06-19T04:55:37;14.70;99.90
44886;DHT22;36669;51.428;21.162;2023-06-19T04:58:03;14.80;99.90
44886;DHT22;36669;51.428;21.162;2023-06-19T05:00:28;14.90;99.90
44886;DHT22;36669;51.428;21.162;2023-06-19T05:02:54;15.00;99.90
44886;DHT22;36669;51.428;21.162;2023-06-19T05:05:25;15.10;99.90
44886;DHT22;36669;51.428;21.162;2023-06-19T05:07:51;15.20;99.90
44886;DHT22;36669;51.428;21.162;2023-06-19T05:10:17;15.30;99.90
44886;DHT22;36669;51.428;21.162;2023-06-19T05:12:43;15.30;99.90
44886;DHT22;36669;51.428;21.162;2023-06-19T05:15:09;15.50;99.90
44886;DHT22;36669;51.428;21.162;2023-06-19T05:17:34;15.60;99.90
44886;DHT22;36669;51.428;21.162;2023-06-19T05:20:00;15.70;99.90
44886;DHT22;36669;51.428;21.162;2023-06-19T05:22:26;15.80;99.90
44886;DHT22;36669;51.428;21.162;2023-06-19T05:24:52;15.90;99.90
44886;DHT22;36669;51.428;21.162;2023-06-19T05:27:17;15.90;99.90
44886;DHT22;36669;51.428;21.162;2023-06-19T05:29:43;16.00;99.90
44886;DHT22;36669;51.428;21.162;2023-06-19T05:32:08;16.10;99.90
44886;DHT22;36669;51.428;21.162;2023-06-19T05:34:34;16.20;99.90
44886;DHT22;36669;51.428;21.162;2023-06-19T05:37:00;16.20;99.90
44886;DHT22;36669;51.428;21.162;2023-06-19T05:39:28;16.30;99.90
44886;DHT22;36669;51.428;21.162;2023-06-19T05:41:54;16.40;99.90
44886;DHT22;36669;51.428;21.162;2023-06-19T05:44:20;16.40;99.90
44886;DHT22;36669;51.428;21.162;2023-06-19T05:46:46;16.50;99.90
44886;DHT22;36669;51.428;21.162;2023-06-19T05:49:11;16.60;99.90
44886;DHT22;36669;51.428;21.162;2023-06-19T05:51:37;16.70;99.90
44886;DHT22;36669;51.428;21.162;2023-06-19T05:54:02;16.70;99.90
44886;DHT22;36669;51.428;21.162;2023-06-19T05:56:32;16.90;99.90
44886;DHT22;36669;51.428;21.162;2023-06-19T05:59:01;17.00;99.90
44886;DHT22;36669;51.428;21.162;2023-06-19T06:01:28;17.00;99.90
44886;DHT22;36669;51.428;21.162;2023-06-19T06:03:55;17.10;99.90
44886;DHT22;36669;51.428;21.162;2023-06-19T06:06:21;17.20;99.90
44886;DHT22;36669;51.428;21.162;2023-06-19T06:08:46;17.30;99.90
44886;DHT22;36669;51.428;21.162;2023-06-19T06:11:12;17.40;99.90
44886;DHT22;36669;51.428;21.162;2023-06-19T06:13:37;17.50;99.90
44886;DHT22;36669;51.428;21.162;2023-06-19T06:16:03;17.60;99.90
44886;DHT22;36669;51.428;21.162;2023-06-19T06:18:29;17.60;99.90
44886;DHT22;36669;51.428;21.162;2023-06-19T06:20:54;17.70;99.90
44886;DHT22;36669;51.428;21.162;2023-06-19T06:23:20;17.80;99.90
44886;DHT22;36669;51.428;21.162;2023-06-19T06:25:45;17.90;99.90
44886;DHT22;36669;51.428;21.162;2023-06-19T06:28:11;18.00;99.90
44886;DHT22;36669;51.428;21.162;2023-06-19T06:30:37;18.10;99.90
44886;DHT22;36669;51.428;21.162;2023-06-19T06:33:04;18.20;99.90
44886;DHT22;36669;51.428;21.162;2023-06-19T06:35:30;18.20;99.90
44886;DHT22;36669;51.428;21.162;2023-06-19T06:37:55;18.40;99.90
44886;DHT22;36669;51.428;21.162;2023-06-19T06:40:21;18.50;99.90
44886;DHT22;36669;51.428;21.162;2023-06-19T06:42:47;18.60;99.90
44886;DHT22;36669;51.428;21.162;2023-06-19T06:45:13;18.70;99.90
44886;DHT22;36669;51.428;21.162;2023-06-19T06:47:38;18.70;99.90
44886;DHT22;36669;51.428;21.162;2023-06-19T06:50:06;18.80;99.90
44886;DHT22;36669;51.428;21.162;2023-06-19T06:52:32;18.90;99.90
44886;DHT22;36669;51.428;21.162;2023-06-19T06:54:58;19.00;99.90
44886;DHT22;36669;51.428;21.162;2023-06-19T06:57:23;19.10;99.90
44886;DHT22;36669;51.428;21.162;2023-06-19T06:59:49;19.20;99.90
44886;DHT22;36669;51.428;21.162;2023-06-19T07:02:15;19.20;99.90
44886;DHT22;36669;51.428;21.162;2023-06-19T07:04:40;19.30;99.90
44886;DHT22;36669;51.428;21.162;2023-06-19T07:07:06;19.40;99.90
44886;DHT22;36669;51.428;21.162;2023-06-19T07:09:32;19.50;99.90
44886;DHT22;36669;51.428;21.162;2023-06-19T07:11:58;19.50;99.90
44886;DHT22;36669;51.428;21.162;2023-06-19T07:14:24;19.60;99.90
44886;DHT22;36669;51.428;21.162;2023-06-19T07:16:50;19.80;99.90
44886;DHT22;36669;51.428;21.162;2023-06-19T07:19:16;19.80;99.90
44886;DHT22;36669;51.428;21.162;2023-06-19T07:21:41;19.80;99.90
44886;DHT22;36669;51.428;21.162;2023-06-19T07:24:07;19.80;99.90
44886;DHT22;36669;51.428;21.162;2023-06-19T07:26:33;20.00;99.90
44886;DHT22;36669;51.428;21.162;2023-06-19T07:28:59;20.10;99.90
44886;DHT22;36669;51.428;21.162;2023-06-19T07:31:25;20.20;99.90
44886;DHT22;36669;51.428;21.162;2023-06-19T07:33:50;20.20;99.90
44886;DHT22;36669;51.428;21.162;2023-06-19T07:36:16;20.20;99.90
44886;DHT22;36669;51.428;21.162;2023-06-19T07:38:45;20.10;99.90
44886;DHT22;36669;51.428;21.162;2023-06-19T07:41:11;20.10;99.90
44886;DHT22;36669;51.428;21.162;2023-06-19T07:43:38;20.20;99.90
44886;DHT22;36669;51.428;21.162;2023-06-19T07:46:04;20.30;99.90
44886;DHT22;36669;51.428;21.162;2023-06-19T07:48:29;20.30;99.90
44886;DHT22;36669;51.428;21.162;2023-06-19T07:50:55;20.40;99.90
44886;DHT22;36669;51.428;21.162;2023-06-19T07:53:21;20.40;99.90
44886;DHT22;36669;51.428;21.162;2023-06-19T07:55:46;20.40;99.90
44886;DHT22;36669;51.428;21.162;2023-06-19T07:58:12;20.40;99.90
44886;DHT22;36669;51.428;21.162;2023-06-19T08:00:38;20.50;99.90
44886;DHT22;36669;51.428;21.162;2023-06-19T08:03:05;20.60;99.90
44886;DHT22;36669;51.428;21.162;2023-06-19T08:05:30;20.50;99.90
44886;DHT22;36669;51.428;21.162;2023-06-19T08:07:56;20.50;99.90
44886;DHT22;36669;51.428;21.162;2023-06-19T08:10:23;20.60;99.90
44886;DHT22;36669;51.428;21.162;2023-06-19T08:12:49;20.70;99.90
44886;DHT22;36669;51.428;21.162;2023-06-19T08:15:14;21.00;99.90
44886;DHT22;36669;51.428;21.162;2023-06-19T08:17:41;21.10;99.90
44886;DHT22;36669;51.428;21.162;2023-06-19T08:20:07;21.20;99.90
44886;DHT22;36669;51.428;21.162;2023-06-19T08:22:34;21.20;99.90
44886;DHT22;36669;51.428;21.162;2023-06-19T08:25:01;21.10;99.90
44886;DHT22;36669;51.428;21.162;2023-06-19T08:27:28;21.00;99.90
44886;DHT22;36669;51.428;21.162;2023-06-19T08:29:54;20.90;99.90
44886;DHT22;36669;51.428;21.162;2023-06-19T08:32:20;20.80;99.90
44886;DHT22;36669;51.428;21.162;2023-06-19T08:34:47;21.00;99.90
44886;DHT22;36669;51.428;21.162;2023-06-19T08:37:14;21.20;99.90
44886;DHT22;36669;51.428;21.162;2023-06-19T08:39:41;21.40;99.90
44886;DHT22;36669;51.428;21.162;2023-06-19T08:42:08;21.50;99.90
44886;DHT22;36669;51.428;21.162;2023-06-19T08:44:36;21.70;99.90
44886;DHT22;36669;51.428;21.162;2023-06-19T08:47:02;21.70;99.90
44886;DHT22;36669;51.428;21.162;2023-06-19T08:49:34;21.70;99.90
44886;DHT22;36669;51.428;21.162;2023-06-19T08:52:00;21.50;99.90
44886;DHT22;36669;51.428;21.162;2023-06-19T08:54:26;21.40;99.90
44886;DHT22;36669;51.428;21.162;2023-06-19T08:56:51;21.60;99.90
44886;DHT22;36669;51.428;21.162;2023-06-19T08:59:19;21.70;99.90
44886;DHT22;36669;51.428;21.162;2023-06-19T09:04:18;22.00;99.90
44886;DHT22;36669;51.428;21.162;2023-06-19T09:06:52;22.10;99.90
44886;DHT22;36669;51.428;21.162;2023-06-19T09:09:19;22.30;99.90
44886;DHT22;36669;51.428;21.162;2023-06-19T09:14:35;22.50;99.90
44886;DHT22;36669;51.428;21.162;2023-06-19T09:17:09;22.30;99.90
44886;DHT22;36669;51.428;21.162;2023-06-19T09:19:35;22.20;99.90
44886;DHT22;36669;51.428;21.162;2023-06-19T09:22:06;22.30;99.90
44886;DHT22;36669;51.428;21.162;2023-06-19T09:24:39;22.30;99.90
44886;DHT22;36669;51.428;21.162;2023-06-19T09:27:16;22.20;99.90
44886;DHT22;36669;51.428;21.162;2023-06-19T09:29:49;22.30;99.90
44886;DHT22;36669;51.428;21.162;2023-06-19T09:32:28;22.30;99.90
44886;DHT22;36669;51.428;21.162;2023-06-19T09:34:56;22.40;99.90
44886;DHT22;36669;51.428;21.162;2023-06-19T09:37:27;22.50;99.90
44886;DHT22;36669;51.428;21.162;2023-06-19T09:39:58;22.30;99.90
44886;DHT22;36669;51.428;21.162;2023-06-19T09:42:42;22.20;99.90
44886;DHT22;36669;51.428;21.162;2023-06-19T09:45:10;22.40;99.90
44886;DHT22;36669;51.428;21.162;2023-06-19T09:47:43;22.60;99.90
44886;DHT22;36669;51.428;21.162;2023-06-19T09:50:11;23.00;99.90
44886;DHT22;36669;51.428;21.162;2023-06-19T09:52:38;23.00;99.90
44886;DHT22;36669;51.428;21.162;2023-06-19T09:55:05;22.80;99.90
44886;DHT22;36669;51.428;21.162;2023-06-19T09:57:32;22.60;99.90
44886;DHT22;36669;51.428;21.162;2023-06-19T09:59:59;22.50;99.90
44886;DHT22;36669;51.428;21.162;2023-06-19T10:02:35;22.60;99.90
44886;DHT22;36669;51.428;21.162;2023-06-19T10:05:01;22.60;99.90
44886;DHT22;36669;51.428;21.162;2023-06-19T10:07:34;22.70;99.90
44886;DHT22;36669;51.428;21.162;2023-06-19T10:10:08;22.70;99.90
44886;DHT22;36669;51.428;21.162;2023-06-19T10:12:45;22.90;99.90
44886;DHT22;36669;51.428;21.162;2023-06-19T10:15:23;23.10;99.90
44886;DHT22;36669;51.428;21.162;2023-06-19T10:17:59;23.30;99.90
44886;DHT22;36669;51.428;21.162;2023-06-19T10:20:51;23.40;99.90
44886;DHT22;36669;51.428;21.162;2023-06-19T10:23:21;23.20;99.90
44886;DHT22;36669;51.428;21.162;2023-06-19T10:25:56;23.50;99.90
44886;DHT22;36669;51.428;21.162;2023-06-19T10:30:56;23.90;99.90
44886;DHT22;36669;51.428;21.162;2023-06-19T10:33:23;23.80;99.90
44886;DHT22;36669;51.428;21.162;2023-06-19T10:35:49;23.80;99.90
44886;DHT22;36669;51.428;21.162;2023-06-19T10:38:15;24.10;99.90
44886;DHT22;36669;51.428;21.162;2023-06-19T10:40:41;24.30;99.90
44886;DHT22;36669;51.428;21.162;2023-06-19T10:43:07;24.60;99.90
44886;DHT22;36669;51.428;21.162;2023-06-19T10:45:33;24.20;99.90
44886;DHT22;36669;51.428;21.162;2023-06-19T10:48:01;23.90;99.90
44886;DHT22;36669;51.428;21.162;2023-06-19T10:50:28;23.70;99.90
44886;DHT22;36669;51.428;21.162;2023-06-19T10:52:54;23.70;99.90
44886;DHT22;36669;51.428;21.162;2023-06-19T10:55:23;24.10;99.90
44886;DHT22;36669;51.428;21.162;2023-06-19T10:57:50;24.40;99.90
44886;DHT22;36669;51.428;21.162;2023-06-19T11:00:27;24.50;99.90
44886;DHT22;36669;51.428;21.162;2023-06-19T11:02:53;24.80;99.90
44886;DHT22;36669;51.428;21.162;2023-06-19T11:05:20;25.30;99.90
44886;DHT22;36669;51.428;21.162;2023-06-19T11:07:52;25.50;99.90
44886;DHT22;36669;51.428;21.162;2023-06-19T11:10:23;25.60;99.90
44886;DHT22;36669;51.428;21.162;2023-06-19T11:12:50;25.50;99.90
44886;DHT22;36669;51.428;21.162;2023-06-19T11:15:16;25.10;99.90
44886;DHT22;36669;51.428;21.162;2023-06-19T11:17:41;24.70;99.90
44886;DHT22;36669;51.428;21.162;2023-06-19T11:20:12;24.80;99.90
44886;DHT22;36669;51.428;21.162;2023-06-19T11:22:40;24.80;99.90
44886;DHT22;36669;51.428;21.162;2023-06-19T11:25:07;24.90;99.50
44886;DHT22;36669;51.428;21.162;2023-06-19T11:27:32;25.10;99.90
44886;DHT22;36669;51.428;21.162;2023-06-19T11:30:00;25.30;98.40
44886;DHT22;36669;51.428;21.162;2023-06-19T11:32:37;25.50;99.90
44886;DHT22;36669;51.428;21.162;2023-06-19T11:35:15;26.00;98.90
44886;DHT22;36669;51.428;21.162;2023-06-19T11:37:42;26.00;94.80
44886;DHT22;36669;51.428;21.162;2023-06-19T11:40:09;26.00;94.50
44886;DHT22;36669;51.428;21.162;2023-06-19T11:43:03;25.40;94.20
44886;DHT22;36669;51.428;21.162;2023-06-19T11:45:29;25.50;96.20
44886;DHT22;36669;51.428;21.162;2023-06-19T11:47:55;26.00;97.10
44886;DHT22;36669;51.428;21.162;2023-06-19T11:50:26;26.00;94.80
44886;DHT22;36669;51.428;21.162;2023-06-19T11:52:52;26.00;95.20
44886;DHT22;36669;51.428;21.162;2023-06-19T11:55:18;25.90;95.40
44886;DHT22;36669;51.428;21.162;2023-06-19T11:57:44;26.10;96.80
44886;DHT22;36669;51.428;21.162;2023-06-19T12:00:16;26.60;95.60
44886;DHT22;36669;51.428;21.162;2023-06-19T12:02:44;25.90;93.60
44886;DHT22;36669;51.428;21.162;2023-06-19T12:05:09;25.00;92.70
44886;DHT22;36669;51.428;21.162;2023-06-19T12:07:36;25.20;94.60
44886;DHT22;36669;51.428;21.162;2023-06-19T12:10:03;25.10;95.60
44886;DHT22;36669;51.428;21.162;2023-06-19T12:12:30;25.50;96.60
44886;DHT22;36669;51.428;21.162;2023-06-19T12:14:56;25.70;95.40
44886;DHT22;36669;51.428;21.162;2023-06-19T12:17:22;25.90;94.10
44886;DHT22;36669;51.428;21.162;2023-06-19T12:19:48;26.10;95.00
44886;DHT22;36669;51.428;21.162;2023-06-19T12:22:14;26.70;94.00
44886;DHT22;36669;51.428;21.162;2023-06-19T12:24:40;27.10;93.70
44886;DHT22;36669;51.428;21.162;2023-06-19T12:27:05;26.60;93.80
44886;DHT22;36669;51.428;21.162;2023-06-19T12:29:31;26.40;94.40
44886;DHT22;36669;51.428;21.162;2023-06-19T12:32:01;27.20;93.80
44886;DHT22;36669;51.428;21.162;2023-06-19T12:34:28;27.90;92.50
44886;DHT22;36669;51.428;21.162;2023-06-19T12:36:54;28.10;90.90
44886;DHT22;36669;51.428;21.162;2023-06-19T12:39:20;27.50;90.00
44886;DHT22;36669;51.428;21.162;2023-06-19T12:41:45;27.00;90.10
44886;DHT22;36669;51.428;21.162;2023-06-19T12:44:11;26.70;91.00
44886;DHT22;36669;51.428;21.162;2023-06-19T12:46:37;26.80;91.00
44886;DHT22;36669;51.428;21.162;2023-06-19T12:49:03;27.30;90.30
44886;DHT22;36669;51.428;21.162;2023-06-19T12:51:29;27.90;89.50
44886;DHT22;36669;51.428;21.162;2023-06-19T12:53:55;28.10;88.00
44886;DHT22;36669;51.428;21.162;2023-06-19T12:56:21;27.70;86.80
44886;DHT22;36669;51.428;21.162;2023-06-19T12:58:46;27.80;88.80
44886;DHT22;36669;51.428;21.162;2023-06-19T13:01:12;27.90;88.90
44886;DHT22;36669;51.428;21.162;2023-06-19T13:03:38;28.60;85.80
44886;DHT22;36669;51.428;21.162;2023-06-19T13:06:03;28.90;80.20
44886;DHT22;36669;51.428;21.162;2023-06-19T13:08:29;28.90;80.00
44886;DHT22;36669;51.428;21.162;2023-06-19T13:10:54;29.20;78.30
44886;DHT22;36669;51.428;21.162;2023-06-19T13:13:21;29.60;76.50
44886;DHT22;36669;51.428;21.162;2023-06-19T13:15:46;29.90;71.30
44886;DHT22;36669;51.428;21.162;2023-06-19T13:18:12;30.50;70.80
44886;DHT22;36669;51.428;21.162;2023-06-19T13:20:37;30.50;70.80
44886;DHT22;36669;51.428;21.162;2023-06-19T13:23:03;31.00;69.80
44886;DHT22;36669;51.428;21.162;2023-06-19T13:25:29;31.30;70.10
44886;DHT22;36669;51.428;21.162;2023-06-19T13:27:54;31.50;67.40
44886;DHT22;36669;51.428;21.162;2023-06-19T13:30:20;31.80;63.40
44886;DHT22;36669;51.428;21.162;2023-06-19T13:32:45;31.50;64.30
44886;DHT22;36669;51.428;21.162;2023-06-19T13:35:11;31.40;63.50
44886;DHT22;36669;51.428;21.162;2023-06-19T13:37:37;32.60;63.40
44886;DHT22;36669;51.428;21.162;2023-06-19T13:40:06;32.70;61.30
44886;DHT22;36669;51.428;21.162;2023-06-19T13:42:33;33.60;60.40
44886;DHT22;36669;51.428;21.162;2023-06-19T13:45:01;34.50;58.40
44886;DHT22;36669;51.428;21.162;2023-06-19T13:47:27;35.70;57.80
44886;DHT22;36669;51.428;21.162;2023-06-19T13:49:53;37.30;55.40
44886;DHT22;36669;51.428;21.162;2023-06-19T13:52:18;38.10;52.70
44886;DHT22;36669;51.428;21.162;2023-06-19T13:54:44;37.50;50.80
44886;DHT22;36669;51.428;21.162;2023-06-19T13:57:10;37.60;51.30
44886;DHT22;36669;51.428;21.162;2023-06-19T13:59:35;35.50;52.30
44886;DHT22;36669;51.428;21.162;2023-06-19T14:02:01;36.00;52.00
44886;DHT22;36669;51.428;21.162;2023-06-19T14:04:27;36.90;49.20
44886;DHT22;36669;51.428;21.162;2023-06-19T14:06:53;37.60;48.20
44886;DHT22;36669;51.428;21.162;2023-06-19T14:09:20;36.10;47.50
44886;DHT22;36669;51.428;21.162;2023-06-19T14:11:46;34.80;49.30
44886;DHT22;36669;51.428;21.162;2023-06-19T14:14:11;34.00;49.10
44886;DHT22;36669;51.428;21.162;2023-06-19T14:16:37;34.90;49.10
44886;DHT22;36669;51.428;21.162;2023-06-19T14:19:02;34.80;49.10
44886;DHT22;36669;51.428;21.162;2023-06-19T14:21:28;33.60;50.30
44886;DHT22;36669;51.428;21.162;2023-06-19T14:23:54;35.10;50.30
44886;DHT22;36669;51.428;21.162;2023-06-19T14:26:20;35.70;49.50
44886;DHT22;36669;51.428;21.162;2023-06-19T14:28:45;36.00;49.10
44886;DHT22;36669;51.428;21.162;2023-06-19T14:31:12;36.90;49.10
44886;DHT22;36669;51.428;21.162;2023-06-19T14:33:38;35.60;47.90
44886;DHT22;36669;51.428;21.162;2023-06-19T14:36:04;34.10;50.40
44886;DHT22;36669;51.428;21.162;2023-06-19T14:38:30;33.50;51.50
44886;DHT22;36669;51.428;21.162;2023-06-19T14:41:02;33.50;51.30
44886;DHT22;36669;51.428;21.162;2023-06-19T14:43:28;33.30;50.40
44886;DHT22;36669;51.428;21.162;2023-06-19T14:45:55;33.40;51.50
44886;DHT22;36669;51.428;21.162;2023-06-19T14:48:21;34.40;49.90
44886;DHT22;36669;51.428;21.162;2023-06-19T14:50:47;34.40;49.30
44886;DHT22;36669;51.428;21.162;2023-06-19T14:53:12;34.90;49.80
44886;DHT22;36669;51.428;21.162;2023-06-19T14:55:38;35.20;49.00
44886;DHT22;36669;51.428;21.162;2023-06-19T14:58:08;33.80;50.00
44886;DHT22;36669;51.428;21.162;2023-06-19T15:00:34;33.80;50.80
44886;DHT22;36669;51.428;21.162;2023-06-19T15:03:06;35.00;50.00
44886;DHT22;36669;51.428;21.162;2023-06-19T15:05:32;35.50;48.90
44886;DHT22;36669;51.428;21.162;2023-06-19T15:07:58;35.80;48.30
44886;DHT22;36669;51.428;21.162;2023-06-19T15:10:25;36.30;48.30
44886;DHT22;36669;51.428;21.162;2023-06-19T15:12:51;36.80;46.90
44886;DHT22;36669;51.428;21.162;2023-06-19T15:15:16;36.80;47.30
44886;DHT22;36669;51.428;21.162;2023-06-19T15:17:42;37.10;46.50
44886;DHT22;36669;51.428;21.162;2023-06-19T15:20:08;36.90;46.60